KMFD/MFD METAR and TAF weather

Enter ICAO airport designator
Station Type Date Time Source
KMFD METAR 2024/05/28 21:52 UTC NOAA

KMFD 282152Z 31009G15KT 10SM SCT045 22/11 A2993 RMK AO2 LTG DSNT N SLP131 T02220111


Station Type Date Time Source
KMFD Decoded METAR 2024/05/28 21:52 UTC NOAA

LAHM MUNICIPAL AIRPORT, OH, United States (KMFD) 40-49N 082-31W 395M
May 28, 2024 - 05:52 PM EDT / 2024.05.28 2152 UTC
Wind: from the NW (310 degrees) at 10 MPH (9 KT) gusting to 17 MPH (15 KT):0
Visibility: 10 mile(s):0
Sky conditions: partly cloudy
Weather: Lightning observed
Temperature: 72.0 F (22.2 C)
Dew Point: 52.0 F (11.1 C)
Relative Humidity: 49%
Pressure (altimeter): 29.93 in. Hg (1013 hPa)
ob: KMFD 282152Z 31009G15KT 10SM SCT045 22/11 A2993 RMK AO2 LTG DSNT N SLP131 T02220111
cycle: 22

Station Type Date Time Source
KMFD TAF 2024/05/28 20:58 UTC NOAA